sensor_id;sensor_type;location;lat;lon;timestamp;pressure;altitude;pressure_sealevel;temperature;humidity
17521;BME280;8878;-33.370;-70.552;2022-09-09T00:01:04;92708.94;;;6.05;100.00
17521;BME280;8878;-33.370;-70.552;2022-09-09T00:03:43;92707.41;;;5.98;100.00
17521;BME280;8878;-33.370;-70.552;2022-09-09T00:06:21;92709.94;;;5.93;100.00
17521;BME280;8878;-33.370;-70.552;2022-09-09T00:09:01;92708.38;;;5.85;100.00
17521;BME280;8878;-33.370;-70.552;2022-09-09T00:11:39;92702.91;;;5.75;100.00
17521;BME280;8878;-33.370;-70.552;2022-09-09T00:14:16;92706.38;;;5.69;100.00
17521;BME280;8878;-33.370;-70.552;2022-09-09T00:16:54;92702.41;;;5.66;100.00
17521;BME280;8878;-33.370;-70.552;2022-09-09T00:19:28;92706.53;;;5.74;100.00
17521;BME280;8878;-33.370;-70.552;2022-09-09T00:22:12;92698.69;;;5.74;100.00
17521;BME280;8878;-33.370;-70.552;2022-09-09T00:24:46;92703.84;;;5.80;100.00
17521;BME280;8878;-33.370;-70.552;2022-09-09T00:27:25;92705.66;;;5.80;100.00
17521;BME280;8878;-33.370;-70.552;2022-09-09T00:29:59;92702.44;;;5.78;100.00
17521;BME280;8878;-33.370;-70.552;2022-09-09T00:32:30;92701.88;;;5.76;100.00
17521;BME280;8878;-33.370;-70.552;2022-09-09T00:35:13;92706.84;;;5.66;100.00
17521;BME280;8878;-33.370;-70.552;2022-09-09T00:37:46;92699.44;;;5.63;100.00
17521;BME280;8878;-33.370;-70.552;2022-09-09T00:40:24;92694.44;;;5.61;100.00
17521;BME280;8878;-33.370;-70.552;2022-09-09T00:43:08;92689.31;;;5.66;100.00
17521;BME280;8878;-33.370;-70.552;2022-09-09T00:46:08;92686.72;;;5.66;100.00
17521;BME280;8878;-33.370;-70.552;2022-09-09T00:48:49;92689.66;;;5.70;100.00
17521;BME280;8878;-33.370;-70.552;2022-09-09T00:51:29;92685.78;;;5.61;100.00
17521;BME280;8878;-33.370;-70.552;2022-09-09T00:54:12;92683.97;;;5.61;100.00
17521;BME280;8878;-33.370;-70.552;2022-09-09T00:56:53;92685.00;;;5.60;100.00
17521;BME280;8878;-33.370;-70.552;2022-09-09T00:59:31;92686.31;;;5.51;100.00
17521;BME280;8878;-33.370;-70.552;2022-09-09T01:02:09;92689.81;;;5.45;100.00
17521;BME280;8878;-33.370;-70.552;2022-09-09T01:04:43;92690.03;;;5.43;100.00
17521;BME280;8878;-33.370;-70.552;2022-09-09T01:07:17;92685.84;;;5.24;100.00
17521;BME280;8878;-33.370;-70.552;2022-09-09T01:09:54;92678.84;;;5.36;100.00
17521;BME280;8878;-33.370;-70.552;2022-09-09T01:12:34;92688.00;;;5.45;100.00
17521;BME280;8878;-33.370;-70.552;2022-09-09T01:15:10;92686.53;;;5.49;100.00
17521;BME280;8878;-33.370;-70.552;2022-09-09T01:17:49;92686.66;;;5.55;100.00
17521;BME280;8878;-33.370;-70.552;2022-09-09T01:20:24;92686.66;;;5.55;100.00
17521;BME280;8878;-33.370;-70.552;2022-09-09T01:23:16;92688.72;;;5.53;100.00
17521;BME280;8878;-33.370;-70.552;2022-09-09T01:26:15;92695.53;;;5.54;100.00
17521;BME280;8878;-33.370;-70.552;2022-09-09T01:28:48;92681.41;;;5.55;100.00
17521;BME280;8878;-33.370;-70.552;2022-09-09T01:31:22;92680.56;;;5.61;100.00
17521;BME280;8878;-33.370;-70.552;2022-09-09T01:33:52;92674.41;;;5.67;100.00
17521;BME280;8878;-33.370;-70.552;2022-09-09T01:36:27;92676.94;;;5.73;100.00
17521;BME280;8878;-33.370;-70.552;2022-09-09T01:38:59;92680.59;;;5.84;100.00
17521;BME280;8878;-33.370;-70.552;2022-09-09T01:41:31;92675.38;;;5.84;100.00
17521;BME280;8878;-33.370;-70.552;2022-09-09T01:44:01;92673.34;;;5.86;100.00
17521;BME280;8878;-33.370;-70.552;2022-09-09T01:46:31;92669.25;;;5.90;100.00
17521;BME280;8878;-33.370;-70.552;2022-09-09T01:49:01;92677.13;;;5.90;100.00
17521;BME280;8878;-33.370;-70.552;2022-09-09T01:51:31;92673.63;;;5.96;100.00
17521;BME280;8878;-33.370;-70.552;2022-09-09T01:54:00;92671.13;;;6.01;100.00
17521;BME280;8878;-33.370;-70.552;2022-09-09T01:56:40;92676.47;;;6.06;100.00
17521;BME280;8878;-33.370;-70.552;2022-09-09T01:59:24;92679.69;;;6.08;100.00
17521;BME280;8878;-33.370;-70.552;2022-09-09T02:02:09;92680.22;;;5.99;100.00
17521;BME280;8878;-33.370;-70.552;2022-09-09T02:04:42;92679.56;;;6.03;100.00
17521;BME280;8878;-33.370;-70.552;2022-09-09T02:10:11;92675.81;;;6.34;100.00
17521;BME280;8878;-33.370;-70.552;2022-09-09T02:12:46;92678.59;;;6.39;100.00
17521;BME280;8878;-33.370;-70.552;2022-09-09T02:15:20;92668.88;;;6.40;100.00
17521;BME280;8878;-33.370;-70.552;2022-09-09T02:17:52;92665.38;;;6.46;100.00
17521;BME280;8878;-33.370;-70.552;2022-09-09T02:20:24;92663.78;;;6.45;100.00
17521;BME280;8878;-33.370;-70.552;2022-09-09T02:22:56;92660.56;;;6.43;100.00
17521;BME280;8878;-33.370;-70.552;2022-09-09T02:25:28;92658.31;;;6.46;100.00
17521;BME280;8878;-33.370;-70.552;2022-09-09T02:27:59;92665.34;;;6.22;100.00
17521;BME280;8878;-33.370;-70.552;2022-09-09T02:30:32;92653.63;;;6.25;100.00
17521;BME280;8878;-33.370;-70.552;2022-09-09T02:33:05;92663.75;;;6.33;100.00
17521;BME280;8878;-33.370;-70.552;2022-09-09T02:35:38;92665.22;;;6.41;100.00
17521;BME280;8878;-33.370;-70.552;2022-09-09T02:38:10;92661.16;;;6.45;100.00
17521;BME280;8878;-33.370;-70.552;2022-09-09T02:40:41;92658.28;;;6.23;100.00
17521;BME280;8878;-33.370;-70.552;2022-09-09T02:43:12;92661.13;;;6.21;100.00
17521;BME280;8878;-33.370;-70.552;2022-09-09T02:45:49;92660.69;;;6.24;100.00
17521;BME280;8878;-33.370;-70.552;2022-09-09T02:48:25;92654.06;;;6.10;100.00
17521;BME280;8878;-33.370;-70.552;2022-09-09T02:51:02;92651.19;;;6.00;100.00
17521;BME280;8878;-33.370;-70.552;2022-09-09T02:53:42;92657.34;;;5.94;100.00
17521;BME280;8878;-33.370;-70.552;2022-09-09T02:56:15;92644.03;;;5.77;100.00
17521;BME280;8878;-33.370;-70.552;2022-09-09T02:58:48;92652.06;;;5.82;100.00
17521;BME280;8878;-33.370;-70.552;2022-09-09T03:01:18;92646.28;;;5.92;100.00
17521;BME280;8878;-33.370;-70.552;2022-09-09T03:03:48;92655.81;;;5.86;100.00
17521;BME280;8878;-33.370;-70.552;2022-09-09T03:06:17;92645.13;;;5.88;100.00
17521;BME280;8878;-33.370;-70.552;2022-09-09T03:08:46;92649.75;;;5.74;100.00
17521;BME280;8878;-33.370;-70.552;2022-09-09T03:11:16;92645.72;;;5.60;100.00
17521;BME280;8878;-33.370;-70.552;2022-09-09T03:13:47;92647.97;;;5.57;100.00
17521;BME280;8878;-33.370;-70.552;2022-09-09T03:16:17;92647.09;;;5.63;100.00
17521;BME280;8878;-33.370;-70.552;2022-09-09T03:18:48;92638.56;;;5.67;100.00
17521;BME280;8878;-33.370;-70.552;2022-09-09T03:21:17;92641.53;;;5.71;100.00
17521;BME280;8878;-33.370;-70.552;2022-09-09T03:23:47;92640.50;;;5.60;100.00
17521;BME280;8878;-33.370;-70.552;2022-09-09T03:26:16;92635.47;;;5.59;100.00
17521;BME280;8878;-33.370;-70.552;2022-09-09T03:28:48;92630.13;;;5.54;100.00
17521;BME280;8878;-33.370;-70.552;2022-09-09T03:31:19;92641.00;;;5.21;100.00
17521;BME280;8878;-33.370;-70.552;2022-09-09T03:33:49;92632.28;;;4.97;100.00
17521;BME280;8878;-33.370;-70.552;2022-09-09T03:36:18;92624.06;;;4.93;100.00
17521;BME280;8878;-33.370;-70.552;2022-09-09T03:38:47;92634.47;;;4.82;100.00
17521;BME280;8878;-33.370;-70.552;2022-09-09T03:41:17;92628.94;;;4.90;100.00
17521;BME280;8878;-33.370;-70.552;2022-09-09T03:43:48;92627.19;;;4.84;100.00
17521;BME280;8878;-33.370;-70.552;2022-09-09T03:46:18;92623.72;;;4.71;100.00
17521;BME280;8878;-33.370;-70.552;2022-09-09T03:48:47;92619.78;;;4.62;100.00
17521;BME280;8878;-33.370;-70.552;2022-09-09T03:51:17;92624.06;;;4.57;100.00
17521;BME280;8878;-33.370;-70.552;2022-09-09T03:53:49;92619.94;;;4.49;100.00
17521;BME280;8878;-33.370;-70.552;2022-09-09T03:56:19;92621.13;;;4.53;100.00
17521;BME280;8878;-33.370;-70.552;2022-09-09T03:58:50;92619.94;;;4.49;100.00
17521;BME280;8878;-33.370;-70.552;2022-09-09T04:01:19;92613.09;;;4.48;100.00
17521;BME280;8878;-33.370;-70.552;2022-09-09T04:03:48;92606.13;;;4.42;100.00
17521;BME280;8878;-33.370;-70.552;2022-09-09T04:06:19;92620.94;;;4.48;100.00
17521;BME280;8878;-33.370;-70.552;2022-09-09T04:08:48;92621.84;;;4.60;100.00
17521;BME280;8878;-33.370;-70.552;2022-09-09T04:11:19;92622.13;;;4.52;100.00
17521;BME280;8878;-33.370;-70.552;2022-09-09T04:13:50;92618.34;;;4.48;100.00
17521;BME280;8878;-33.370;-70.552;2022-09-09T04:16:19;92617.84;;;4.58;100.00
17521;BME280;8878;-33.370;-70.552;2022-09-09T04:18:49;92612.97;;;4.61;100.00
17521;BME280;8878;-33.370;-70.552;2022-09-09T04:21:19;92612.53;;;4.64;100.00
17521;BME280;8878;-33.370;-70.552;2022-09-09T04:23:50;92607.44;;;4.69;100.00
17521;BME280;8878;-33.370;-70.552;2022-09-09T04:26:19;92609.63;;;4.72;100.00
17521;BME280;8878;-33.370;-70.552;2022-09-09T04:28:50;92614.13;;;4.65;100.00
17521;BME280;8878;-33.370;-70.552;2022-09-09T04:31:20;92612.53;;;4.46;100.00
17521;BME280;8878;-33.370;-70.552;2022-09-09T04:33:50;92597.78;;;4.15;100.00
17521;BME280;8878;-33.370;-70.552;2022-09-09T04:36:20;92606.25;;;4.11;100.00
17521;BME280;8878;-33.370;-70.552;2022-09-09T04:38:49;92604.53;;;4.05;100.00
17521;BME280;8878;-33.370;-70.552;2022-09-09T04:41:18;92594.06;;;4.05;100.00
17521;BME280;8878;-33.370;-70.552;2022-09-09T04:43:50;92598.94;;;4.19;100.00
17521;BME280;8878;-33.370;-70.552;2022-09-09T04:46:21;92597.72;;;4.22;100.00
17521;BME280;8878;-33.370;-70.552;2022-09-09T04:48:51;92606.53;;;4.03;100.00
17521;BME280;8878;-33.370;-70.552;2022-09-09T04:51:21;92605.69;;;4.09;100.00
17521;BME280;8878;-33.370;-70.552;2022-09-09T04:53:50;92604.53;;;4.23;100.00
17521;BME280;8878;-33.370;-70.552;2022-09-09T04:56:20;92605.34;;;4.23;100.00
17521;BME280;8878;-33.370;-70.552;2022-09-09T04:58:51;92595.97;;;4.16;100.00
17521;BME280;8878;-33.370;-70.552;2022-09-09T05:01:21;92607.00;;;4.18;100.00
17521;BME280;8878;-33.370;-70.552;2022-09-09T05:03:51;92600.47;;;4.27;100.00
17521;BME280;8878;-33.370;-70.552;2022-09-09T05:06:21;92590.25;;;4.25;100.00
17521;BME280;8878;-33.370;-70.552;2022-09-09T05:08:51;92589.47;;;4.25;100.00
17521;BME280;8878;-33.370;-70.552;2022-09-09T05:11:22;92598.91;;;4.26;100.00
17521;BME280;8878;-33.370;-70.552;2022-09-09T05:13:54;92592.13;;;4.18;100.00
17521;BME280;8878;-33.370;-70.552;2022-09-09T05:16:24;92589.28;;;4.20;100.00
17521;BME280;8878;-33.370;-70.552;2022-09-09T05:18:53;92590.31;;;4.19;100.00
17521;BME280;8878;-33.370;-70.552;2022-09-09T05:21:24;92582.09;;;4.15;100.00
17521;BME280;8878;-33.370;-70.552;2022-09-09T05:23:53;92591.16;;;4.13;100.00
17521;BME280;8878;-33.370;-70.552;2022-09-09T05:26:23;92588.72;;;4.18;100.00
17521;BME280;8878;-33.370;-70.552;2022-09-09T05:28:54;92586.47;;;4.21;100.00
17521;BME280;8878;-33.370;-70.552;2022-09-09T05:31:23;92575.22;;;4.21;100.00
17521;BME280;8878;-33.370;-70.552;2022-09-09T05:33:55;92565.22;;;4.18;100.00
17521;BME280;8878;-33.370;-70.552;2022-09-09T05:36:25;92563.56;;;4.23;100.00
17521;BME280;8878;-33.370;-70.552;2022-09-09T05:38:55;92566.50;;;4.27;100.00
17521;BME280;8878;-33.370;-70.552;2022-09-09T05:41:24;92559.94;;;4.24;100.00
17521;BME280;8878;-33.370;-70.552;2022-09-09T05:43:56;92566.38;;;4.22;100.00
17521;BME280;8878;-33.370;-70.552;2022-09-09T05:46:26;92560.94;;;4.23;100.00
17521;BME280;8878;-33.370;-70.552;2022-09-09T05:48:55;92553.09;;;4.23;100.00
17521;BME280;8878;-33.370;-70.552;2022-09-09T05:51:26;92543.81;;;4.27;100.00
17521;BME280;8878;-33.370;-70.552;2022-09-09T05:53:56;92548.00;;;4.28;100.00
17521;BME280;8878;-33.370;-70.552;2022-09-09T05:56:27;92547.38;;;4.33;100.00
17521;BME280;8878;-33.370;-70.552;2022-09-09T05:58:59;92547.59;;;4.31;100.00
17521;BME280;8878;-33.370;-70.552;2022-09-09T06:01:29;92550.22;;;4.31;100.00
17521;BME280;8878;-33.370;-70.552;2022-09-09T06:03:59;92547.59;;;4.31;100.00
17521;BME280;8878;-33.370;-70.552;2022-09-09T06:06:31;92544.59;;;4.28;100.00
17521;BME280;8878;-33.370;-70.552;2022-09-09T06:09:05;92544.75;;;4.15;100.00
17521;BME280;8878;-33.370;-70.552;2022-09-09T06:11:38;92541.47;;;4.19;100.00
17521;BME280;8878;-33.370;-70.552;2022-09-09T06:14:09;92543.31;;;4.19;100.00
17521;BME280;8878;-33.370;-70.552;2022-09-09T06:16:39;92540.56;;;4.32;100.00
17521;BME280;8878;-33.370;-70.552;2022-09-09T06:19:09;92538.81;;;4.44;100.00
17521;BME280;8878;-33.370;-70.552;2022-09-09T06:21:39;92541.00;;;4.47;100.00
17521;BME280;8878;-33.370;-70.552;2022-09-09T06:24:09;92534.88;;;4.53;100.00
17521;BME280;8878;-33.370;-70.552;2022-09-09T06:26:40;92530.53;;;4.47;100.00
17521;BME280;8878;-33.370;-70.552;2022-09-09T06:29:11;92522.69;;;4.29;100.00
17521;BME280;8878;-33.370;-70.552;2022-09-09T06:31:41;92523.19;;;4.19;100.00
17521;BME280;8878;-33.370;-70.552;2022-09-09T06:34:10;92524.06;;;4.13;100.00
17521;BME280;8878;-33.370;-70.552;2022-09-09T06:36:40;92512.47;;;4.09;100.00
17521;BME280;8878;-33.370;-70.552;2022-09-09T06:39:09;92517.97;;;4.01;100.00
17521;BME280;8878;-33.370;-70.552;2022-09-09T06:41:39;92521.16;;;3.85;100.00
17521;BME280;8878;-33.370;-70.552;2022-09-09T06:44:10;92516.94;;;3.84;100.00
17521;BME280;8878;-33.370;-70.552;2022-09-09T06:46:40;92510.00;;;3.96;100.00
17521;BME280;8878;-33.370;-70.552;2022-09-09T06:49:10;92510.66;;;3.91;100.00
17521;BME280;8878;-33.370;-70.552;2022-09-09T06:51:39;92499.50;;;4.03;100.00
17521;BME280;8878;-33.370;-70.552;2022-09-09T06:54:09;92490.72;;;3.97;100.00
17521;BME280;8878;-33.370;-70.552;2022-09-09T06:56:39;92496.44;;;3.87;100.00
17521;BME280;8878;-33.370;-70.552;2022-09-09T06:59:13;92494.19;;;3.91;100.00
17521;BME280;8878;-33.370;-70.552;2022-09-09T07:01:43;92490.06;;;3.83;100.00
17521;BME280;8878;-33.370;-70.552;2022-09-09T07:04:13;92479.69;;;3.95;100.00
17521;BME280;8878;-33.370;-70.552;2022-09-09T07:06:44;92478.31;;;4.11;100.00
17521;BME280;8878;-33.370;-70.552;2022-09-09T07:09:14;92472.50;;;4.27;100.00
17521;BME280;8878;-33.370;-70.552;2022-09-09T07:11:45;92469.44;;;4.30;100.00
17521;BME280;8878;-33.370;-70.552;2022-09-09T07:14:17;92459.44;;;4.27;100.00
17521;BME280;8878;-33.370;-70.552;2022-09-09T07:16:46;92467.50;;;4.25;100.00
17521;BME280;8878;-33.370;-70.552;2022-09-09T07:19:16;92468.75;;;4.23;100.00
17521;BME280;8878;-33.370;-70.552;2022-09-09T07:21:46;92460.78;;;4.18;100.00
17521;BME280;8878;-33.370;-70.552;2022-09-09T07:24:16;92457.16;;;4.19;100.00
17521;BME280;8878;-33.370;-70.552;2022-09-09T07:26:45;92461.66;;;4.12;100.00
17521;BME280;8878;-33.370;-70.552;2022-09-09T07:29:16;92451.97;;;4.12;100.00
17521;BME280;8878;-33.370;-70.552;2022-09-09T07:31:46;92440.03;;;4.05;100.00
17521;BME280;8878;-33.370;-70.552;2022-09-09T07:34:15;92448.09;;;4.03;100.00
17521;BME280;8878;-33.370;-70.552;2022-09-09T07:36:45;92447.19;;;3.91;100.00
17521;BME280;8878;-33.370;-70.552;2022-09-09T07:39:15;92445.31;;;3.80;100.00
17521;BME280;8878;-33.370;-70.552;2022-09-09T07:41:46;92437.16;;;3.76;100.00
17521;BME280;8878;-33.370;-70.552;2022-09-09T07:44:19;92446.56;;;3.77;100.00
17521;BME280;8878;-33.370;-70.552;2022-09-09T07:46:49;92441.13;;;3.79;100.00
17521;BME280;8878;-33.370;-70.552;2022-09-09T07:49:18;92434.97;;;3.55;100.00
17521;BME280;8878;-33.370;-70.552;2022-09-09T07:51:47;92432.19;;;3.50;100.00
17521;BME280;8878;-33.370;-70.552;2022-09-09T07:54:18;92430.81;;;3.47;100.00
17521;BME280;8878;-33.370;-70.552;2022-09-09T07:56:50;92435.38;;;3.52;100.00
17521;BME280;8878;-33.370;-70.552;2022-09-09T07:59:21;92439.59;;;3.53;100.00
17521;BME280;8878;-33.370;-70.552;2022-09-09T08:01:51;92428.22;;;3.47;100.00
17521;BME280;8878;-33.370;-70.552;2022-09-09T08:04:22;92423.56;;;3.31;100.00
17521;BME280;8878;-33.370;-70.552;2022-09-09T08:06:54;92425.53;;;3.11;100.00
17521;BME280;8878;-33.370;-70.552;2022-09-09T08:09:25;92432.34;;;3.12;100.00
17521;BME280;8878;-33.370;-70.552;2022-09-09T08:11:56;92426.59;;;3.03;100.00
17521;BME280;8878;-33.370;-70.552;2022-09-09T08:14:27;92424.22;;;3.02;100.00
17521;BME280;8878;-33.370;-70.552;2022-09-09T08:16:56;92428.25;;;2.98;100.00
17521;BME280;8878;-33.370;-70.552;2022-09-09T08:19:26;92423.31;;;2.90;100.00
17521;BME280;8878;-33.370;-70.552;2022-09-09T08:21:56;92415.56;;;2.83;100.00
17521;BME280;8878;-33.370;-70.552;2022-09-09T08:24:26;92421.75;;;2.82;100.00
17521;BME280;8878;-33.370;-70.552;2022-09-09T08:26:55;92416.72;;;2.87;100.00
17521;BME280;8878;-33.370;-70.552;2022-09-09T08:29:26;92419.25;;;2.94;100.00
17521;BME280;8878;-33.370;-70.552;2022-09-09T08:31:58;92417.72;;;3.11;100.00
17521;BME280;8878;-33.370;-70.552;2022-09-09T08:34:28;92416.88;;;3.17;100.00
17521;BME280;8878;-33.370;-70.552;2022-09-09T08:36:58;92412.63;;;2.98;100.00
17521;BME280;8878;-33.370;-70.552;2022-09-09T08:39:27;92407.72;;;3.08;100.00
17521;BME280;8878;-33.370;-70.552;2022-09-09T08:42:18;92409.09;;;3.10;100.00
17521;BME280;8878;-33.370;-70.552;2022-09-09T08:45:12;92410.22;;;2.96;100.00
17521;BME280;8878;-33.370;-70.552;2022-09-09T08:47:55;92409.16;;;2.79;100.00
17521;BME280;8878;-33.370;-70.552;2022-09-09T08:50:30;92406.81;;;2.71;100.00
17521;BME280;8878;-33.370;-70.552;2022-09-09T08:53:04;92410.59;;;2.75;100.00
17521;BME280;8878;-33.370;-70.552;2022-09-09T08:55:41;92408.84;;;2.94;100.00
17521;BME280;8878;-33.370;-70.552;2022-09-09T08:58:14;92418.63;;;2.98;100.00
17521;BME280;8878;-33.370;-70.552;2022-09-09T09:01:00;92420.00;;;3.01;100.00
17521;BME280;8878;-33.370;-70.552;2022-09-09T09:03:38;92416.19;;;3.03;100.00
17521;BME280;8878;-33.370;-70.552;2022-09-09T09:06:22;92419.06;;;2.95;100.00
17521;BME280;8878;-33.370;-70.552;2022-09-09T09:08:59;92412.19;;;3.01;100.00
17521;BME280;8878;-33.370;-70.552;2022-09-09T09:11:36;92406.56;;;3.04;100.00
17521;BME280;8878;-33.370;-70.552;2022-09-09T09:14:10;92406.16;;;3.00;100.00
17521;BME280;8878;-33.370;-70.552;2022-09-09T09:16:49;92403.47;;;2.89;100.00
17521;BME280;8878;-33.370;-70.552;2022-09-09T09:19:20;92410.91;;;2.85;100.00
17521;BME280;8878;-33.370;-70.552;2022-09-09T09:21:56;92406.28;;;2.87;100.00
17521;BME280;8878;-33.370;-70.552;2022-09-09T09:24:31;92400.28;;;2.87;100.00
17521;BME280;8878;-33.370;-70.552;2022-09-09T09:27:13;92406.94;;;2.83;100.00
17521;BME280;8878;-33.370;-70.552;2022-09-09T09:29:43;92397.31;;;2.83;100.00
17521;BME280;8878;-33.370;-70.552;2022-09-09T09:32:18;92396.25;;;2.91;100.00
17521;BME280;8878;-33.370;-70.552;2022-09-09T09:34:50;92399.06;;;2.89;100.00
17521;BME280;8878;-33.370;-70.552;2022-09-09T09:37:26;92383.47;;;2.83;100.00
17521;BME280;8878;-33.370;-70.552;2022-09-09T09:39:56;92384.41;;;2.70;100.00
17521;BME280;8878;-33.370;-70.552;2022-09-09T09:42:25;92388.75;;;2.76;100.00
17521;BME280;8878;-33.370;-70.552;2022-09-09T09:44:55;92383.66;;;2.63;100.00
17521;BME280;8878;-33.370;-70.552;2022-09-09T09:47:27;92383.41;;;2.40;100.00
17521;BME280;8878;-33.370;-70.552;2022-09-09T09:49:58;92383.09;;;2.23;100.00
17521;BME280;8878;-33.370;-70.552;2022-09-09T09:52:30;92385.09;;;2.21;100.00
17521;BME280;8878;-33.370;-70.552;2022-09-09T09:55:03;92387.09;;;2.25;100.00
17521;BME280;8878;-33.370;-70.552;2022-09-09T09:57:34;92390.69;;;2.24;100.00
17521;BME280;8878;-33.370;-70.552;2022-09-09T10:00:13;92396.78;;;2.12;100.00
17521;BME280;8878;-33.370;-70.552;2022-09-09T10:02:47;92386.66;;;2.28;100.00
17521;BME280;8878;-33.370;-70.552;2022-09-09T10:05:21;92384.16;;;2.47;100.00
17521;BME280;8878;-33.370;-70.552;2022-09-09T10:08:02;92389.69;;;2.57;100.00
17521;BME280;8878;-33.370;-70.552;2022-09-09T10:10:45;92386.66;;;2.60;100.00
17521;BME280;8878;-33.370;-70.552;2022-09-09T10:13:20;92382.84;;;2.62;100.00
17521;BME280;8878;-33.370;-70.552;2022-09-09T10:16:00;92383.25;;;2.59;100.00
17521;BME280;8878;-33.370;-70.552;2022-09-09T10:18:49;92386.25;;;2.63;100.00
17521;BME280;8878;-33.370;-70.552;2022-09-09T10:21:45;92393.13;;;2.51;100.00
17521;BME280;8878;-33.370;-70.552;2022-09-09T10:27:39;92376.25;;;2.28;100.00
17521;BME280;8878;-33.370;-70.552;2022-09-09T10:30:17;92387.59;;;2.09;100.00
17521;BME280;8878;-33.370;-70.552;2022-09-09T10:32:49;92387.44;;;1.98;100.00
17521;BME280;8878;-33.370;-70.552;2022-09-09T10:35:30;92390.09;;;1.91;100.00
17521;BME280;8878;-33.370;-70.552;2022-09-09T10:38:12;92393.94;;;2.13;100.00
17521;BME280;8878;-33.370;-70.552;2022-09-09T10:41:00;92380.81;;;2.02;100.00
17521;BME280;8878;-33.370;-70.552;2022-09-09T10:43:42;92389.25;;;1.97;100.00
17521;BME280;8878;-33.370;-70.552;2022-09-09T10:46:23;92389.00;;;2.05;100.00
17521;BME280;8878;-33.370;-70.552;2022-09-09T10:49:08;92386.03;;;2.02;100.00
17521;BME280;8878;-33.370;-70.552;2022-09-09T10:51:51;92378.84;;;1.97;100.00
17521;BME280;8878;-33.370;-70.552;2022-09-09T10:54:39;92385.16;;;2.14;100.00
17521;BME280;8878;-33.370;-70.552;2022-09-09T10:57:25;92384.25;;;2.33;100.00
17521;BME280;8878;-33.370;-70.552;2022-09-09T11:00:03;92391.56;;;2.43;100.00
17521;BME280;8878;-33.370;-70.552;2022-09-09T11:02:34;92396.22;;;2.41;100.00
17521;BME280;8878;-33.370;-70.552;2022-09-09T11:05:05;92393.81;;;2.40;100.00
17521;BME280;8878;-33.370;-70.552;2022-09-09T11:07:40;92389.84;;;2.30;100.00
17521;BME280;8878;-33.370;-70.552;2022-09-09T11:10:19;92398.06;;;2.34;100.00
17521;BME280;8878;-33.370;-70.552;2022-09-09T11:12:52;92395.56;;;2.46;100.00
17521;BME280;8878;-33.370;-70.552;2022-09-09T11:15:30;92388.75;;;2.45;100.00
17521;BME280;8878;-33.370;-70.552;2022-09-09T11:18:08;92391.31;;;2.26;100.00
17521;BME280;8878;-33.370;-70.552;2022-09-09T11:20:40;92387.59;;;2.09;100.00
17521;BME280;8878;-33.370;-70.552;2022-09-09T11:23:15;92389.09;;;2.23;100.00
17521;BME280;8878;-33.370;-70.552;2022-09-09T11:25:50;92391.19;;;2.08;100.00
17521;BME280;8878;-33.370;-70.552;2022-09-09T11:28:37;92406.00;;;2.08;100.00
17521;BME280;8878;-33.370;-70.552;2022-09-09T11:31:28;92389.59;;;2.07;100.00
17521;BME280;8878;-33.370;-70.552;2022-09-09T11:34:25;92402.06;;;1.99;100.00
17521;BME280;8878;-33.370;-70.552;2022-09-09T11:37:18;92396.44;;;2.02;100.00
17521;BME280;8878;-33.370;-70.552;2022-09-09T11:42:46;92399.91;;;2.27;100.00
17521;BME280;8878;-33.370;-70.552;2022-09-09T11:45:23;92395.47;;;2.34;100.00
17521;BME280;8878;-33.370;-70.552;2022-09-09T11:47:56;92403.78;;;2.43;100.00
17521;BME280;8878;-33.370;-70.552;2022-09-09T11:50:31;92404.25;;;2.64;100.00
17521;BME280;8878;-33.370;-70.552;2022-09-09T11:53:18;92392.84;;;2.90;100.00
17521;BME280;8878;-33.370;-70.552;2022-09-09T11:56:08;92402.19;;;2.98;100.00
17521;BME280;8878;-33.370;-70.552;2022-09-09T11:58:41;92409.28;;;2.91;100.00
17521;BME280;8878;-33.370;-70.552;2022-09-09T12:01:25;92406.81;;;2.96;100.00
17521;BME280;8878;-33.370;-70.552;2022-09-09T12:06:53;92410.16;;;3.46;100.00
17521;BME280;8878;-33.370;-70.552;2022-09-09T12:09:33;92405.81;;;3.58;100.00
17521;BME280;8878;-33.370;-70.552;2022-09-09T12:12:22;92405.84;;;3.76;100.00
17521;BME280;8878;-33.370;-70.552;2022-09-09T12:17:44;92407.94;;;3.68;100.00
17521;BME280;8878;-33.370;-70.552;2022-09-09T12:20:15;92418.44;;;3.79;100.00
17521;BME280;8878;-33.370;-70.552;2022-09-09T12:23:20;92407.84;;;4.11;100.00
17521;BME280;8878;-33.370;-70.552;2022-09-09T12:26:12;92410.63;;;4.27;100.00
17521;BME280;8878;-33.370;-70.552;2022-09-09T12:29:01;92413.84;;;4.41;100.00
17521;BME280;8878;-33.370;-70.552;2022-09-09T12:31:38;92423.34;;;4.54;100.00
17521;BME280;8878;-33.370;-70.552;2022-09-09T12:34:13;92426.75;;;4.54;100.00
17521;BME280;8878;-33.370;-70.552;2022-09-09T12:36:46;92421.28;;;4.56;100.00
17521;BME280;8878;-33.370;-70.552;2022-09-09T12:39:22;92423.38;;;4.65;100.00
17521;BME280;8878;-33.370;-70.552;2022-09-09T12:41:52;92412.00;;;4.71;100.00
17521;BME280;8878;-33.370;-70.552;2022-09-09T12:44:26;92419.84;;;4.71;100.00
17521;BME280;8878;-33.370;-70.552;2022-09-09T12:46:59;92418.16;;;4.77;100.00
17521;BME280;8878;-33.370;-70.552;2022-09-09T12:49:33;92426.38;;;4.81;100.00
17521;BME280;8878;-33.370;-70.552;2022-09-09T12:52:07;92425.91;;;4.84;100.00
17521;BME280;8878;-33.370;-70.552;2022-09-09T12:54:38;92439.34;;;4.87;100.00
17521;BME280;8878;-33.370;-70.552;2022-09-09T12:57:14;92449.69;;;4.94;100.00
17521;BME280;8878;-33.370;-70.552;2022-09-09T12:59:45;92440.94;;;5.00;100.00
17521;BME280;8878;-33.370;-70.552;2022-09-09T13:02:20;92437.47;;;5.18;100.00
17521;BME280;8878;-33.370;-70.552;2022-09-09T13:04:50;92441.84;;;5.05;100.00
17521;BME280;8878;-33.370;-70.552;2022-09-09T13:07:21;92435.28;;;5.26;100.00
17521;BME280;8878;-33.370;-70.552;2022-09-09T13:09:52;92437.13;;;5.49;100.00
17521;BME280;8878;-33.370;-70.552;2022-09-09T13:12:22;92438.38;;;5.70;100.00
17521;BME280;8878;-33.370;-70.552;2022-09-09T13:14:54;92446.00;;;5.71;100.00
17521;BME280;8878;-33.370;-70.552;2022-09-09T13:17:26;92448.84;;;5.58;100.00
17521;BME280;8878;-33.370;-70.552;2022-09-09T13:19:56;92449.28;;;5.55;100.00
17521;BME280;8878;-33.370;-70.552;2022-09-09T13:22:30;92447.94;;;5.53;100.00
17521;BME280;8878;-33.370;-70.552;2022-09-09T13:25:02;92451.69;;;5.57;100.00
17521;BME280;8878;-33.370;-70.552;2022-09-09T13:27:33;92443.06;;;5.68;100.00
17521;BME280;8878;-33.370;-70.552;2022-09-09T13:33:23;92442.91;;;5.86;100.00